sensor_id;sensor_type;location;lat;lon;timestamp;temperature;humidity
51619;DHT22;38518;53.164;5.430;2022-07-06T00:01:49;15.80;24.80
51619;DHT22;38518;53.164;5.430;2022-07-06T00:04:17;15.80;24.30
51619;DHT22;38518;53.164;5.430;2022-07-06T00:06:43;15.80;25.00
51619;DHT22;38518;53.164;5.430;2022-07-06T00:09:11;15.80;28.40
51619;DHT22;38518;53.164;5.430;2022-07-06T00:11:39;15.80;25.50
51619;DHT22;38518;53.164;5.430;2022-07-06T00:14:08;15.80;26.00
51619;DHT22;38518;53.164;5.430;2022-07-06T00:16:34;15.80;26.10
51619;DHT22;38518;53.164;5.430;2022-07-06T00:19:00;15.80;25.70
51619;DHT22;38518;53.164;5.430;2022-07-06T00:21:25;15.80;24.90
51619;DHT22;38518;53.164;5.430;2022-07-06T00:23:57;15.80;24.20
51619;DHT22;38518;53.164;5.430;2022-07-06T00:26:23;15.80;23.80
51619;DHT22;38518;53.164;5.430;2022-07-06T00:28:52;15.80;24.80
51619;DHT22;38518;53.164;5.430;2022-07-06T00:31:18;15.80;27.00
51619;DHT22;38518;53.164;5.430;2022-07-06T00:33:43;15.80;27.60
51619;DHT22;38518;53.164;5.430;2022-07-06T00:36:09;15.80;27.70
51619;DHT22;38518;53.164;5.430;2022-07-06T00:38:35;15.80;28.00
51619;DHT22;38518;53.164;5.430;2022-07-06T00:41:01;15.80;30.40
51619;DHT22;38518;53.164;5.430;2022-07-06T00:43:27;15.70;26.30
51619;DHT22;38518;53.164;5.430;2022-07-06T00:45:52;15.70;24.60
51619;DHT22;38518;53.164;5.430;2022-07-06T00:48:18;15.70;24.60
51619;DHT22;38518;53.164;5.430;2022-07-06T00:50:44;15.70;24.50
51619;DHT22;38518;53.164;5.430;2022-07-06T00:53:10;15.70;23.40
51619;DHT22;38518;53.164;5.430;2022-07-06T00:55:37;15.70;21.20
51619;DHT22;38518;53.164;5.430;2022-07-06T00:58:07;15.70;19.00
51619;DHT22;38518;53.164;5.430;2022-07-06T01:00:34;15.60;18.60
51619;DHT22;38518;53.164;5.430;2022-07-06T01:02:59;15.60;19.00
51619;DHT22;38518;53.164;5.430;2022-07-06T01:05:25;15.60;19.70
51619;DHT22;38518;53.164;5.430;2022-07-06T01:07:52;15.60;19.40
51619;DHT22;38518;53.164;5.430;2022-07-06T01:10:28;15.60;19.60
51619;DHT22;38518;53.164;5.430;2022-07-06T01:12:55;15.60;19.30
51619;DHT22;38518;53.164;5.430;2022-07-06T01:15:24;15.60;19.20
51619;DHT22;38518;53.164;5.430;2022-07-06T01:17:51;15.60;20.80
51619;DHT22;38518;53.164;5.430;2022-07-06T01:20:25;15.50;24.20
51619;DHT22;38518;53.164;5.430;2022-07-06T01:22:52;15.50;26.10
51619;DHT22;38518;53.164;5.430;2022-07-06T01:25:19;15.60;28.80
51619;DHT22;38518;53.164;5.430;2022-07-06T01:27:45;15.50;28.80
51619;DHT22;38518;53.164;5.430;2022-07-06T01:30:18;15.50;30.20
51619;DHT22;38518;53.164;5.430;2022-07-06T01:32:47;15.50;29.30
51619;DHT22;38518;53.164;5.430;2022-07-06T01:35:14;15.60;28.00
51619;DHT22;38518;53.164;5.430;2022-07-06T01:37:41;15.50;30.00
51619;DHT22;38518;53.164;5.430;2022-07-06T01:40:09;15.60;31.50
51619;DHT22;38518;53.164;5.430;2022-07-06T01:42:35;15.60;40.00
51619;DHT22;38518;53.164;5.430;2022-07-06T01:45:03;15.60;39.00
51619;DHT22;38518;53.164;5.430;2022-07-06T01:47:29;15.50;43.50
51619;DHT22;38518;53.164;5.430;2022-07-06T01:49:58;15.50;40.40
51619;DHT22;38518;53.164;5.430;2022-07-06T01:52:25;15.50;39.60
51619;DHT22;38518;53.164;5.430;2022-07-06T01:54:51;15.50;38.30
51619;DHT22;38518;53.164;5.430;2022-07-06T01:57:17;15.50;40.20
51619;DHT22;38518;53.164;5.430;2022-07-06T01:59:43;15.50;37.80
51619;DHT22;38518;53.164;5.430;2022-07-06T02:02:08;15.50;38.80
51619;DHT22;38518;53.164;5.430;2022-07-06T02:04:35;15.40;33.50
51619;DHT22;38518;53.164;5.430;2022-07-06T02:07:03;15.40;33.60
51619;DHT22;38518;53.164;5.430;2022-07-06T02:09:29;15.40;36.50
51619;DHT22;38518;53.164;5.430;2022-07-06T02:11:55;15.40;33.40
51619;DHT22;38518;53.164;5.430;2022-07-06T02:14:21;15.40;29.50
51619;DHT22;38518;53.164;5.430;2022-07-06T02:16:46;15.40;29.80
51619;DHT22;38518;53.164;5.430;2022-07-06T02:19:12;15.30;30.30
51619;DHT22;38518;53.164;5.430;2022-07-06T02:21:38;15.30;30.50
51619;DHT22;38518;53.164;5.430;2022-07-06T02:24:04;15.30;32.80
51619;DHT22;38518;53.164;5.430;2022-07-06T02:26:30;15.30;31.20
51619;DHT22;38518;53.164;5.430;2022-07-06T02:28:55;15.30;29.70
51619;DHT22;38518;53.164;5.430;2022-07-06T02:31:27;15.20;28.30
51619;DHT22;38518;53.164;5.430;2022-07-06T02:33:52;15.20;23.40
51619;DHT22;38518;53.164;5.430;2022-07-06T02:36:18;15.10;25.50
51619;DHT22;38518;53.164;5.430;2022-07-06T02:38:44;15.10;26.20
51619;DHT22;38518;53.164;5.430;2022-07-06T02:41:09;15.00;27.00
51619;DHT22;38518;53.164;5.430;2022-07-06T02:43:39;14.90;28.00
51619;DHT22;38518;53.164;5.430;2022-07-06T02:46:05;14.90;31.40
51619;DHT22;38518;53.164;5.430;2022-07-06T02:48:31;14.90;37.70
51619;DHT22;38518;53.164;5.430;2022-07-06T02:50:57;14.70;39.20
51619;DHT22;38518;53.164;5.430;2022-07-06T02:53:24;14.70;40.50
51619;DHT22;38518;53.164;5.430;2022-07-06T02:55:50;14.70;36.80
51619;DHT22;38518;53.164;5.430;2022-07-06T02:58:15;14.70;35.80
51619;DHT22;38518;53.164;5.430;2022-07-06T03:00:41;14.60;34.80
51619;DHT22;38518;53.164;5.430;2022-07-06T03:03:07;14.60;35.60
51619;DHT22;38518;53.164;5.430;2022-07-06T03:05:34;14.60;36.50
51619;DHT22;38518;53.164;5.430;2022-07-06T03:07:59;14.60;42.90
51619;DHT22;38518;53.164;5.430;2022-07-06T03:10:25;14.50;42.80
51619;DHT22;38518;53.164;5.430;2022-07-06T03:12:51;14.50;43.40
51619;DHT22;38518;53.164;5.430;2022-07-06T03:15:17;14.50;46.10
51619;DHT22;38518;53.164;5.430;2022-07-06T03:17:42;14.40;48.20
51619;DHT22;38518;53.164;5.430;2022-07-06T03:20:08;14.40;48.10
51619;DHT22;38518;53.164;5.430;2022-07-06T03:22:34;14.40;51.90
51619;DHT22;38518;53.164;5.430;2022-07-06T03:25:00;14.40;55.50
51619;DHT22;38518;53.164;5.430;2022-07-06T03:27:25;14.40;55.90
51619;DHT22;38518;53.164;5.430;2022-07-06T03:29:51;15.30;61.80
51619;DHT22;38518;53.164;5.430;2022-07-06T03:32:17;14.40;57.60
51619;DHT22;38518;53.164;5.430;2022-07-06T03:34:42;14.40;59.10
51619;DHT22;38518;53.164;5.430;2022-07-06T03:37:08;14.40;60.20
51619;DHT22;38518;53.164;5.430;2022-07-06T03:39:34;14.40;58.50
51619;DHT22;38518;53.164;5.430;2022-07-06T03:42:00;14.60;57.70
51619;DHT22;38518;53.164;5.430;2022-07-06T03:44:26;14.50;56.10
51619;DHT22;38518;53.164;5.430;2022-07-06T03:46:51;14.50;55.50
51619;DHT22;38518;53.164;5.430;2022-07-06T03:49:21;14.60;54.40
51619;DHT22;38518;53.164;5.430;2022-07-06T03:51:47;14.60;52.30
51619;DHT22;38518;53.164;5.430;2022-07-06T03:54:13;14.70;48.50
51619;DHT22;38518;53.164;5.430;2022-07-06T03:56:38;14.70;49.00
51619;DHT22;38518;53.164;5.430;2022-07-06T03:59:04;14.80;47.80
51619;DHT22;38518;53.164;5.430;2022-07-06T04:01:30;14.80;46.90
51619;DHT22;38518;53.164;5.430;2022-07-06T04:03:56;14.90;46.40
51619;DHT22;38518;53.164;5.430;2022-07-06T04:06:22;14.90;49.30
51619;DHT22;38518;53.164;5.430;2022-07-06T04:08:48;15.00;48.10
51619;DHT22;38518;53.164;5.430;2022-07-06T04:11:13;15.00;46.80
51619;DHT22;38518;53.164;5.430;2022-07-06T04:13:39;15.00;48.80
51619;DHT22;38518;53.164;5.430;2022-07-06T04:16:08;15.00;50.90
51619;DHT22;38518;53.164;5.430;2022-07-06T04:18:34;15.10;49.80
51619;DHT22;38518;53.164;5.430;2022-07-06T04:21:00;15.10;43.90
51619;DHT22;38518;53.164;5.430;2022-07-06T04:23:26;15.20;45.60
51619;DHT22;38518;53.164;5.430;2022-07-06T04:25:52;15.10;47.90
51619;DHT22;38518;53.164;5.430;2022-07-06T04:28:17;15.10;51.10
51619;DHT22;38518;53.164;5.430;2022-07-06T04:30:43;15.10;48.90
51619;DHT22;38518;53.164;5.430;2022-07-06T04:33:09;15.20;45.90
51619;DHT22;38518;53.164;5.430;2022-07-06T04:35:35;15.10;45.00
51619;DHT22;38518;53.164;5.430;2022-07-06T04:38:01;15.20;45.30
51619;DHT22;38518;53.164;5.430;2022-07-06T04:40:27;15.20;50.20
51619;DHT22;38518;53.164;5.430;2022-07-06T04:42:53;15.20;53.60
51619;DHT22;38518;53.164;5.430;2022-07-06T04:45:18;15.20;55.30
51619;DHT22;38518;53.164;5.430;2022-07-06T04:47:44;15.20;55.90
51619;DHT22;38518;53.164;5.430;2022-07-06T04:50:11;15.20;53.50
51619;DHT22;38518;53.164;5.430;2022-07-06T04:52:37;15.20;49.10
51619;DHT22;38518;53.164;5.430;2022-07-06T04:55:03;15.20;49.30
51619;DHT22;38518;53.164;5.430;2022-07-06T04:57:31;15.20;43.00
51619;DHT22;38518;53.164;5.430;2022-07-06T04:59:57;15.20;42.20
51619;DHT22;38518;53.164;5.430;2022-07-06T05:02:23;15.20;45.50
51619;DHT22;38518;53.164;5.430;2022-07-06T05:04:49;15.30;41.90
51619;DHT22;38518;53.164;5.430;2022-07-06T05:07:15;15.20;37.50
51619;DHT22;38518;53.164;5.430;2022-07-06T05:09:40;15.30;42.40
51619;DHT22;38518;53.164;5.430;2022-07-06T05:12:06;15.30;43.70
51619;DHT22;38518;53.164;5.430;2022-07-06T05:14:33;15.40;40.10
51619;DHT22;38518;53.164;5.430;2022-07-06T05:16:59;15.40;40.30
51619;DHT22;38518;53.164;5.430;2022-07-06T05:19:25;15.50;41.70
51619;DHT22;38518;53.164;5.430;2022-07-06T05:21:50;15.60;43.00
51619;DHT22;38518;53.164;5.430;2022-07-06T05:24:16;15.60;36.30
51619;DHT22;38518;53.164;5.430;2022-07-06T05:26:42;15.70;33.30
51619;DHT22;38518;53.164;5.430;2022-07-06T05:29:08;15.70;38.00
51619;DHT22;38518;53.164;5.430;2022-07-06T05:31:33;15.70;40.30
51619;DHT22;38518;53.164;5.430;2022-07-06T05:33:59;15.80;46.80
51619;DHT22;38518;53.164;5.430;2022-07-06T05:36:25;15.90;49.90
51619;DHT22;38518;53.164;5.430;2022-07-06T05:38:50;16.00;49.20
51619;DHT22;38518;53.164;5.430;2022-07-06T05:41:16;16.30;44.90
51619;DHT22;38518;53.164;5.430;2022-07-06T05:43:42;16.10;42.30
51619;DHT22;38518;53.164;5.430;2022-07-06T05:46:08;16.20;38.90
51619;DHT22;38518;53.164;5.430;2022-07-06T05:48:33;16.20;37.90
51619;DHT22;38518;53.164;5.430;2022-07-06T05:51:18;16.20;36.60
51619;DHT22;38518;53.164;5.430;2022-07-06T05:53:43;16.20;37.50
51619;DHT22;38518;53.164;5.430;2022-07-06T05:56:09;16.30;37.00
51619;DHT22;38518;53.164;5.430;2022-07-06T05:58:35;16.40;35.80
51619;DHT22;38518;53.164;5.430;2022-07-06T06:01:00;16.50;38.10
51619;DHT22;38518;53.164;5.430;2022-07-06T06:03:26;16.50;35.90
51619;DHT22;38518;53.164;5.430;2022-07-06T06:05:52;16.80;35.80
51619;DHT22;38518;53.164;5.430;2022-07-06T06:08:18;17.10;29.40
51619;DHT22;38518;53.164;5.430;2022-07-06T06:10:43;17.50;26.20
51619;DHT22;38518;53.164;5.430;2022-07-06T06:13:09;17.80;24.40
51619;DHT22;38518;53.164;5.430;2022-07-06T06:15:35;18.00;21.70
51619;DHT22;38518;53.164;5.430;2022-07-06T06:18:04;18.10;20.40
51619;DHT22;38518;53.164;5.430;2022-07-06T06:20:30;18.30;19.50
51619;DHT22;38518;53.164;5.430;2022-07-06T06:22:57;18.60;18.70
51619;DHT22;38518;53.164;5.430;2022-07-06T06:25:29;18.70;16.90
51619;DHT22;38518;53.164;5.430;2022-07-06T06:27:55;18.90;15.60
51619;DHT22;38518;53.164;5.430;2022-07-06T06:30:21;18.90;16.20
51619;DHT22;38518;53.164;5.430;2022-07-06T06:32:49;19.00;14.60
51619;DHT22;38518;53.164;5.430;2022-07-06T06:35:15;19.00;14.10
51619;DHT22;38518;53.164;5.430;2022-07-06T06:37:51;19.10;15.00
51619;DHT22;38518;53.164;5.430;2022-07-06T06:40:17;19.10;14.20
51619;DHT22;38518;53.164;5.430;2022-07-06T06:42:43;19.10;14.40
51619;DHT22;38518;53.164;5.430;2022-07-06T06:45:09;19.10;11.90
51619;DHT22;38518;53.164;5.430;2022-07-06T06:47:35;19.20;12.60
51619;DHT22;38518;53.164;5.430;2022-07-06T06:50:01;19.30;12.60
51619;DHT22;38518;53.164;5.430;2022-07-06T06:52:27;19.30;12.10
51619;DHT22;38518;53.164;5.430;2022-07-06T06:54:55;19.50;13.40
51619;DHT22;38518;53.164;5.430;2022-07-06T06:57:21;19.50;12.60
51619;DHT22;38518;53.164;5.430;2022-07-06T06:59:47;19.50;11.80
51619;DHT22;38518;53.164;5.430;2022-07-06T07:02:32;19.50;11.50
51619;DHT22;38518;53.164;5.430;2022-07-06T07:04:58;19.40;11.90
51619;DHT22;38518;53.164;5.430;2022-07-06T07:07:24;19.40;11.80
51619;DHT22;38518;53.164;5.430;2022-07-06T07:09:50;19.30;11.00
51619;DHT22;38518;53.164;5.430;2022-07-06T07:12:16;19.50;11.80
51619;DHT22;38518;53.164;5.430;2022-07-06T07:14:43;19.70;9.40
51619;DHT22;38518;53.164;5.430;2022-07-06T07:17:09;20.00;11.00
51619;DHT22;38518;53.164;5.430;2022-07-06T07:19:37;20.40;11.80
51619;DHT22;38518;53.164;5.430;2022-07-06T07:22:03;20.80;11.20
51619;DHT22;38518;53.164;5.430;2022-07-06T07:24:28;20.90;8.80
51619;DHT22;38518;53.164;5.430;2022-07-06T07:27:00;21.00;7.90
51619;DHT22;38518;53.164;5.430;2022-07-06T07:29:26;21.10;6.70
51619;DHT22;38518;53.164;5.430;2022-07-06T07:31:52;21.10;7.80
51619;DHT22;38518;53.164;5.430;2022-07-06T07:34:17;20.90;7.30
51619;DHT22;38518;53.164;5.430;2022-07-06T07:36:43;20.80;7.70
51619;DHT22;38518;53.164;5.430;2022-07-06T07:39:12;20.60;7.30
51619;DHT22;38518;53.164;5.430;2022-07-06T07:41:38;20.40;6.60
51619;DHT22;38518;53.164;5.430;2022-07-06T07:44:04;20.30;7.00
51619;DHT22;38518;53.164;5.430;2022-07-06T07:46:29;20.10;6.50
51619;DHT22;38518;53.164;5.430;2022-07-06T07:48:55;19.70;6.50
51619;DHT22;38518;53.164;5.430;2022-07-06T07:51:29;19.70;7.10
51619;DHT22;38518;53.164;5.430;2022-07-06T07:53:55;20.00;8.50
51619;DHT22;38518;53.164;5.430;2022-07-06T07:56:20;20.30;8.00
51619;DHT22;38518;53.164;5.430;2022-07-06T07:58:46;20.50;6.50
51619;DHT22;38518;53.164;5.430;2022-07-06T08:01:14;20.70;6.60
51619;DHT22;38518;53.164;5.430;2022-07-06T08:03:40;21.00;6.40
51619;DHT22;38518;53.164;5.430;2022-07-06T08:06:05;21.50;7.50
51619;DHT22;38518;53.164;5.430;2022-07-06T08:08:31;21.90;6.70
51619;DHT22;38518;53.164;5.430;2022-07-06T08:10:57;22.10;5.40
51619;DHT22;38518;53.164;5.430;2022-07-06T08:13:22;22.40;6.10
51619;DHT22;38518;53.164;5.430;2022-07-06T08:15:48;22.60;4.30
51619;DHT22;38518;53.164;5.430;2022-07-06T08:18:14;23.00;4.00
51619;DHT22;38518;53.164;5.430;2022-07-06T08:20:39;23.10;2.70
51619;DHT22;38518;53.164;5.430;2022-07-06T08:23:05;23.10;1.40
51619;DHT22;38518;53.164;5.430;2022-07-06T08:25:31;23.20;1.30
51619;DHT22;38518;53.164;5.430;2022-07-06T08:27:57;23.30;1.00
51619;DHT22;38518;53.164;5.430;2022-07-06T08:30:23;23.30;1.50
51619;DHT22;38518;53.164;5.430;2022-07-06T08:32:49;23.50;1.00
51619;DHT22;38518;53.164;5.430;2022-07-06T08:35:15;23.60;1.00
51619;DHT22;38518;53.164;5.430;2022-07-06T08:37:41;23.60;1.00
51619;DHT22;38518;53.164;5.430;2022-07-06T08:40:07;23.40;1.00
51619;DHT22;38518;53.164;5.430;2022-07-06T08:42:34;23.40;1.00
51619;DHT22;38518;53.164;5.430;2022-07-06T08:45:03;23.50;1.00
51619;DHT22;38518;53.164;5.430;2022-07-06T08:47:30;23.70;1.00
51619;DHT22;38518;53.164;5.430;2022-07-06T08:49:56;24.10;1.00
51619;DHT22;38518;53.164;5.430;2022-07-06T08:52:23;24.20;1.00
51619;DHT22;38518;53.164;5.430;2022-07-06T08:54:49;24.20;1.00
51619;DHT22;38518;53.164;5.430;2022-07-06T08:57:15;24.10;1.00
51619;DHT22;38518;53.164;5.430;2022-07-06T08:59:41;23.80;1.00
51619;DHT22;38518;53.164;5.430;2022-07-06T09:02:08;23.60;1.00
51619;DHT22;38518;53.164;5.430;2022-07-06T09:04:35;23.40;1.00
51619;DHT22;38518;53.164;5.430;2022-07-06T09:07:01;23.30;1.00
51619;DHT22;38518;53.164;5.430;2022-07-06T09:09:29;23.30;1.00
51619;DHT22;38518;53.164;5.430;2022-07-06T09:11:56;23.70;1.00
51619;DHT22;38518;53.164;5.430;2022-07-06T09:14:22;24.20;1.00
51619;DHT22;38518;53.164;5.430;2022-07-06T09:16:52;24.70;1.00
51619;DHT22;38518;53.164;5.430;2022-07-06T09:19:30;24.70;1.00
51619;DHT22;38518;53.164;5.430;2022-07-06T09:21:56;24.70;1.00
51619;DHT22;38518;53.164;5.430;2022-07-06T09:24:22;24.60;1.00
51619;DHT22;38518;53.164;5.430;2022-07-06T09:26:48;24.50;1.00
51619;DHT22;38518;53.164;5.430;2022-07-06T09:29:14;24.40;1.00
51619;DHT22;38518;53.164;5.430;2022-07-06T09:31:40;24.40;1.00
51619;DHT22;38518;53.164;5.430;2022-07-06T09:34:09;24.30;1.00
51619;DHT22;38518;53.164;5.430;2022-07-06T09:36:47;24.20;1.00
51619;DHT22;38518;53.164;5.430;2022-07-06T09:39:27;24.10;1.00
51619;DHT22;38518;53.164;5.430;2022-07-06T09:41:55;24.10;1.00
51619;DHT22;38518;53.164;5.430;2022-07-06T09:44:24;24.10;1.00
51619;DHT22;38518;53.164;5.430;2022-07-06T09:46:51;24.20;1.00
51619;DHT22;38518;53.164;5.430;2022-07-06T09:49:20;24.30;1.00
51619;DHT22;38518;53.164;5.430;2022-07-06T09:51:49;24.20;1.00
51619;DHT22;38518;53.164;5.430;2022-07-06T09:54:15;24.60;1.00
51619;DHT22;38518;53.164;5.430;2022-07-06T09:56:43;25.00;1.00
51619;DHT22;38518;53.164;5.430;2022-07-06T09:59:14;25.20;1.00
51619;DHT22;38518;53.164;5.430;2022-07-06T10:01:40;25.60;1.00
51619;DHT22;38518;53.164;5.430;2022-07-06T10:04:08;25.90;1.00
51619;DHT22;38518;53.164;5.430;2022-07-06T10:06:35;26.00;1.00
51619;DHT22;38518;53.164;5.430;2022-07-06T10:09:02;26.30;1.00
51619;DHT22;38518;53.164;5.430;2022-07-06T10:11:33;26.20;1.00
51619;DHT22;38518;53.164;5.430;2022-07-06T10:14:01;26.20;1.00
51619;DHT22;38518;53.164;5.430;2022-07-06T10:16:29;26.10;1.00
51619;DHT22;38518;53.164;5.430;2022-07-06T10:18:55;25.90;1.00
51619;DHT22;38518;53.164;5.430;2022-07-06T10:21:22;25.90;1.00
51619;DHT22;38518;53.164;5.430;2022-07-06T10:23:49;25.80;1.00
51619;DHT22;38518;53.164;5.430;2022-07-06T10:26:16;25.70;1.00
51619;DHT22;38518;53.164;5.430;2022-07-06T10:28:42;25.90;1.00
51619;DHT22;38518;53.164;5.430;2022-07-06T10:31:09;26.00;1.00
51619;DHT22;38518;53.164;5.430;2022-07-06T10:33:36;26.20;1.00
51619;DHT22;38518;53.164;5.430;2022-07-06T10:36:03;26.20;1.00
51619;DHT22;38518;53.164;5.430;2022-07-06T10:38:33;26.20;1.00
51619;DHT22;38518;53.164;5.430;2022-07-06T10:41:04;26.50;1.00
51619;DHT22;38518;53.164;5.430;2022-07-06T10:43:38;26.50;1.00
51619;DHT22;38518;53.164;5.430;2022-07-06T10:46:14;26.40;1.00
51619;DHT22;38518;53.164;5.430;2022-07-06T10:48:45;26.60;1.00
51619;DHT22;38518;53.164;5.430;2022-07-06T10:51:12;26.40;1.00
51619;DHT22;38518;53.164;5.430;2022-07-06T10:53:40;26.50;1.00
51619;DHT22;38518;53.164;5.430;2022-07-06T10:56:07;26.50;1.00
51619;DHT22;38518;53.164;5.430;2022-07-06T10:58:52;26.80;1.00
51619;DHT22;38518;53.164;5.430;2022-07-06T11:01:20;26.60;1.00
51619;DHT22;38518;53.164;5.430;2022-07-06T11:04:04;26.50;1.00
51619;DHT22;38518;53.164;5.430;2022-07-06T11:06:39;26.20;1.00
51619;DHT22;38518;53.164;5.430;2022-07-06T11:09:10;26.20;1.00
51619;DHT22;38518;53.164;5.430;2022-07-06T11:16:29;27.00;1.00
51619;DHT22;38518;53.164;5.430;2022-07-06T11:19:13;27.40;1.00
51619;DHT22;38518;53.164;5.430;2022-07-06T11:24:11;27.70;1.00
51619;DHT22;38518;53.164;5.430;2022-07-06T11:26:37;27.50;1.00
51619;DHT22;38518;53.164;5.430;2022-07-06T11:29:05;27.70;1.00
51619;DHT22;38518;53.164;5.430;2022-07-06T11:31:37;27.70;1.00
51619;DHT22;38518;53.164;5.430;2022-07-06T11:34:04;27.80;1.00
51619;DHT22;38518;53.164;5.430;2022-07-06T11:36:31;27.60;1.00
51619;DHT22;38518;53.164;5.430;2022-07-06T11:38:57;27.20;1.00
51619;DHT22;38518;53.164;5.430;2022-07-06T11:41:23;26.80;1.00
51619;DHT22;38518;53.164;5.430;2022-07-06T11:43:49;26.40;1.00
51619;DHT22;38518;53.164;5.430;2022-07-06T11:46:30;26.00;1.00
51619;DHT22;38518;53.164;5.430;2022-07-06T11:49:07;25.30;1.00
51619;DHT22;38518;53.164;5.430;2022-07-06T11:51:40;25.20;1.00
51619;DHT22;38518;53.164;5.430;2022-07-06T11:54:12;24.60;1.00
51619;DHT22;38518;53.164;5.430;2022-07-06T11:56:45;24.30;1.00
51619;DHT22;38518;53.164;5.430;2022-07-06T11:59:11;24.30;1.00
51619;DHT22;38518;53.164;5.430;2022-07-06T12:01:36;24.30;1.00
51619;DHT22;38518;53.164;5.430;2022-07-06T12:04:07;24.40;1.00
51619;DHT22;38518;53.164;5.430;2022-07-06T12:06:33;24.30;1.00
51619;DHT22;38518;53.164;5.430;2022-07-06T12:09:00;24.30;1.00
51619;DHT22;38518;53.164;5.430;2022-07-06T12:11:36;24.10;1.00
51619;DHT22;38518;53.164;5.430;2022-07-06T12:14:12;24.30;1.00
51619;DHT22;38518;53.164;5.430;2022-07-06T12:16:39;24.30;1.00
51619;DHT22;38518;53.164;5.430;2022-07-06T12:19:06;24.30;1.00
51619;DHT22;38518;53.164;5.430;2022-07-06T12:21:36;24.20;1.00
51619;DHT22;38518;53.164;5.430;2022-07-06T12:24:07;23.80;1.00
51619;DHT22;38518;53.164;5.430;2022-07-06T12:26:39;23.50;1.00
51619;DHT22;38518;53.164;5.430;2022-07-06T12:29:10;23.30;1.00
51619;DHT22;38518;53.164;5.430;2022-07-06T12:31:40;22.80;1.00
51619;DHT22;38518;53.164;5.430;2022-07-06T12:34:16;22.50;1.00
51619;DHT22;38518;53.164;5.430;2022-07-06T12:39:17;22.30;1.00
51619;DHT22;38518;53.164;5.430;2022-07-06T12:41:47;22.30;1.00
51619;DHT22;38518;53.164;5.430;2022-07-06T12:44:14;22.30;1.00
51619;DHT22;38518;53.164;5.430;2022-07-06T12:46:41;22.20;1.00
51619;DHT22;38518;53.164;5.430;2022-07-06T12:49:13;22.10;1.00
51619;DHT22;38518;53.164;5.430;2022-07-06T12:51:55;22.00;1.00
51619;DHT22;38518;53.164;5.430;2022-07-06T12:54:22;21.80;1.00
51619;DHT22;38518;53.164;5.430;2022-07-06T12:57:12;21.70;1.00
51619;DHT22;38518;53.164;5.430;2022-07-06T13:02:16;21.60;1.00
51619;DHT22;38518;53.164;5.430;2022-07-06T13:04:42;21.40;1.00
51619;DHT22;38518;53.164;5.430;2022-07-06T13:07:18;21.30;1.00
51619;DHT22;38518;53.164;5.430;2022-07-06T13:09:47;21.10;1.00
51619;DHT22;38518;53.164;5.430;2022-07-06T13:12:12;20.90;1.00
51619;DHT22;38518;53.164;5.430;2022-07-06T13:14:38;20.70;1.00
51619;DHT22;38518;53.164;5.430;2022-07-06T13:17:04;20.70;1.00
51619;DHT22;38518;53.164;5.430;2022-07-06T13:19:30;20.60;1.00
51619;DHT22;38518;53.164;5.430;2022-07-06T13:21:55;20.60;1.00
51619;DHT22;38518;53.164;5.430;2022-07-06T13:24:21;20.50;1.00
51619;DHT22;38518;53.164;5.430;2022-07-06T13:26:47;20.50;1.00
51619;DHT22;38518;53.164;5.430;2022-07-06T13:29:12;20.40;1.00
51619;DHT22;38518;53.164;5.430;2022-07-06T13:31:39;20.40;1.00
51619;DHT22;38518;53.164;5.430;2022-07-06T13:34:06;20.40;1.00
51619;DHT22;38518;53.164;5.430;2022-07-06T13:36:32;20.40;1.00
51619;DHT22;38518;53.164;5.430;2022-07-06T13:38:58;20.30;1.00
51619;DHT22;38518;53.164;5.430;2022-07-06T13:41:24;20.20;2.80
51619;DHT22;38518;53.164;5.430;2022-07-06T13:43:50;20.10;10.70
51619;DHT22;38518;53.164;5.430;2022-07-06T13:46:15;20.10;12.40
51619;DHT22;38518;53.164;5.430;2022-07-06T13:48:42;20.20;11.80
51619;DHT22;38518;53.164;5.430;2022-07-06T13:51:08;20.10;12.90
51619;DHT22;38518;53.164;5.430;2022-07-06T13:53:34;20.00;15.00
51619;DHT22;38518;53.164;5.430;2022-07-06T13:56:00;19.90;19.80
51619;DHT22;38518;53.164;5.430;2022-07-06T13:58:26;19.80;17.60
51619;DHT22;38518;53.164;5.430;2022-07-06T14:00:52;19.90;16.70
51619;DHT22;38518;53.164;5.430;2022-07-06T14:03:18;19.90;14.70
51619;DHT22;38518;53.164;5.430;2022-07-06T14:05:43;19.90;13.70
51619;DHT22;38518;53.164;5.430;2022-07-06T14:08:09;19.80;16.50
51619;DHT22;38518;53.164;5.430;2022-07-06T14:10:35;19.80;18.30
51619;DHT22;38518;53.164;5.430;2022-07-06T14:13:00;19.80;17.10
51619;DHT22;38518;53.164;5.430;2022-07-06T14:15:26;19.70;14.50
51619;DHT22;38518;53.164;5.430;2022-07-06T14:17:52;19.60;13.50
51619;DHT22;38518;53.164;5.430;2022-07-06T14:20:22;19.50;14.20
51619;DHT22;38518;53.164;5.430;2022-07-06T14:22:48;19.50;14.90
51619;DHT22;38518;53.164;5.430;2022-07-06T14:25:13;19.50;13.90
51619;DHT22;38518;53.164;5.430;2022-07-06T14:27:39;19.50;14.20
51619;DHT22;38518;53.164;5.430;2022-07-06T14:30:06;19.50;15.00
51619;DHT22;38518;53.164;5.430;2022-07-06T14:32:32;19.50;16.10
51619;DHT22;38518;53.164;5.430;2022-07-06T14:34:57;19.40;19.40
51619;DHT22;38518;53.164;5.430;2022-07-06T14:37:23;19.30;24.00
51619;DHT22;38518;53.164;5.430;2022-07-06T14:39:49;19.20;23.70
51619;DHT22;38518;53.164;5.430;2022-07-06T14:42:15;19.10;25.80
51619;DHT22;38518;53.164;5.430;2022-07-06T14:44:41;19.10;27.70
51619;DHT22;38518;53.164;5.430;2022-07-06T14:47:07;19.10;24.60
51619;DHT22;38518;53.164;5.430;2022-07-06T14:49:32;19.00;28.90
51619;DHT22;38518;53.164;5.430;2022-07-06T14:51:58;19.00;40.10
51619;DHT22;38518;53.164;5.430;2022-07-06T14:54:26;19.00;44.60
51619;DHT22;38518;53.164;5.430;2022-07-06T14:56:51;18.90;51.00
51619;DHT22;38518;53.164;5.430;2022-07-06T14:59:17;18.90;61.30
51619;DHT22;38518;53.164;5.430;2022-07-06T15:01:43;18.70;76.50
51619;DHT22;38518;53.164;5.430;2022-07-06T15:04:10;18.60;81.50
51619;DHT22;38518;53.164;5.430;2022-07-06T15:06:36;18.50;91.80
51619;DHT22;38518;53.164;5.430;2022-07-06T15:09:03;18.50;99.90
51619;DHT22;38518;53.164;5.430;2022-07-06T15:11:33;18.40;99.90
51619;DHT22;38518;53.164;5.430;2022-07-06T15:13:59;18.30;99.90
51619;DHT22;38518;53.164;5.430;2022-07-06T15:16:25;18.20;99.90
51619;DHT22;38518;53.164;5.430;2022-07-06T15:18:51;18.20;99.90
51619;DHT22;38518;53.164;5.430;2022-07-06T15:21:17;18.10;99.90
51619;DHT22;38518;53.164;5.430;2022-07-06T15:23:45;18.40;99.90
51619;DHT22;38518;53.164;5.430;2022-07-06T15:26:11;17.90;99.90
51619;DHT22;38518;53.164;5.430;2022-07-06T15:28:36;17.80;99.90
51619;DHT22;38518;53.164;5.430;2022-07-06T15:31:02;17.70;99.90
51619;DHT22;38518;53.164;5.430;2022-07-06T15:33:28;17.70;99.90
51619;DHT22;38518;53.164;5.430;2022-07-06T15:35:54;17.80;99.90
51619;DHT22;38518;53.164;5.430;2022-07-06T15:38:25;17.80;99.90
51619;DHT22;38518;53.164;5.430;2022-07-06T15:41:05;17.70;99.90
51619;DHT22;38518;53.164;5.430;2022-07-06T15:43:31;17.70;99.90
51619;DHT22;38518;53.164;5.430;2022-07-06T15:46:02;17.80;99.90
51619;DHT22;38518;53.164;5.430;2022-07-06T15:48:34;17.80;99.90
51619;DHT22;38518;53.164;5.430;2022-07-06T15:51:00;17.90;99.90